Deering Airport Deering US
ICAO: PADE
IATA:
Category: Medium
Scheduled Services:

Elevation: 21 ft
TransAlt. 18000 ft.

Airport Communications:
ANCHORAGE CNTR:119.2
ASOS:135.5
CTAF:122.9

PADE Zoom In..

Runways:

(A) RW 02 length 3320 ft width 75 ft
---- / hdg 21

(B) RW 11 length 2660 ft width 75 ft
---- / hdg 110

(C) RW 20 length 3320 ft width 75 ft
---- / hdg 201

(D) RW 29 length 2660 ft width 75 ft
---- / hdg 290

Location; PADE
Day. 26 / Time. 02.53 Zulu
* Altimeter: 28.82
* Temperature: -02° c. -28.4°f.
* Wind from: 070° Speed 09 kn.
Dewpoint: -04° c.
Visibility: 10 Statute Miles.
Clouds: Few 1500 ft.
Clouds: Broken 2500 ft.
Clouds: Overcast 11000 ft.

PADE 260253Z AUTO 07009KT 10SM FEW015 BKN025 OVC110 M02/M04 A2882 RMK AO2 SLP759 T10221039 53004 TSNO $

Going to: --> -->


Wind From 070°
Speed 09 kn.

 
 
jpsmedia worldairports.se 2020   terms of use